.
WxDataArchive / Data Records for 2010-04-03
2010-04-02 April 2010 2010-04-04

Data Records for Saturday, 03 April 2010

Time	Temp	Chill	HIndex	Humid	Dewpt	 Wind 	HiWind	WindDir	Rain 	Barom 
-----	----	-----	------	-----	-----	------	------	-------	-----	----- 
00:00	66.8	66.8	66.8	41	42.3	0	1	135	0.00	29.807 
00:05	66.3	66.3	66.3	42	42.5	0	1	135	0.00	29.807 
00:10	65.8	65.8	65.8	43	42.7	0	0	---	0.00	29.807 
00:15	65.0	65.0	65.0	44	42.6	0	1	135	0.00	29.799 
00:20	64.5	64.5	64.5	45	42.7	0	0	---	0.00	29.799 
00:25	63.7	63.7	63.7	46	42.5	0	0	---	0.00	29.799 
00:30	63.1	63.1	63.1	47	42.5	0	0	---	0.00	29.798 
00:35	62.4	62.4	62.4	47	41.9	0	0	---	0.00	29.798 
00:40	61.8	61.8	61.8	48	41.9	0	0	---	0.00	29.798 
00:45	61.2	61.2	61.2	49	41.9	0	0	---	0.00	29.800 
00:50	60.5	60.5	60.5	50	41.8	0	0	---	0.00	29.800 
00:55	60.1	60.1	60.1	50	41.4	0	0	---	0.00	29.800 
01:00	59.6	59.6	59.6	51	41.4	0	0	---	0.00	29.803 
01:05	59.2	59.2	59.2	51	41.1	0	0	---	0.00	29.803 
01:10	58.9	58.9	58.9	52	41.3	0	0	---	0.00	29.803 
01:15	59.2	59.2	59.2	50	40.6	0	1	135	0.00	29.801 
01:20	59.9	59.9	59.9	48	40.2	0	1	135	0.00	29.801 
01:25	61.0	61.0	61.0	46	40.1	0	2	135	0.00	29.801 
01:30	61.8	61.8	61.8	45	40.2	0	1	135	0.00	29.800 
01:35	62.1	62.1	62.1	46	41.1	0	1	135	0.00	29.800 
01:40	62.0	62.0	62.0	46	41.0	0	1	135	0.00	29.800 
01:45	61.6	61.6	61.6	46	40.6	0	0	---	0.00	29.801 
01:50	61.2	61.2	61.2	47	40.8	0	0	---	0.00	29.801 
01:55	60.7	60.7	60.7	47	40.3	0	0	---	0.00	29.801 
02:00	60.2	60.2	60.2	50	41.5	0	0	---	0.00	29.805 
02:05	59.6	59.6	59.6	50	40.9	0	0	---	0.00	29.805 
02:10	58.9	58.9	58.9	50	40.3	0	0	---	0.00	29.805 
02:15	58.3	58.3	58.3	52	40.8	0	0	---	0.00	29.804 
02:20	58.0	58.0	58.0	52	40.5	0	1	135	0.00	29.804 
02:25	58.1	58.1	58.1	52	40.6	0	1	135	0.00	29.804 
02:30	58.0	58.0	58.0	52	40.5	0	0	---	0.00	29.804 
02:35	58.0	58.0	58.0	52	40.5	0	0	---	0.00	29.804 
02:40	57.6	57.6	57.6	52	40.1	0	0	---	0.00	29.804 
02:45	57.5	57.5	57.5	53	40.5	0	0	---	0.00	29.802 
02:50	57.3	57.3	57.3	53	40.3	0	0	---	0.00	29.802 
02:55	57.2	57.2	57.2	54	40.7	0	0	---	0.00	29.802 
03:00	57.2	57.2	57.2	54	40.7	0	0	---	0.00	29.796 
03:05	57.5	57.5	57.5	53	40.5	0	0	---	0.00	29.796 
03:10	58.1	58.1	58.1	52	40.6	0	1	135	0.00	29.796 
03:15	58.9	58.9	58.9	51	40.8	0	1	135	0.00	29.788 
03:20	59.6	59.6	59.6	50	40.9	0	2	135	0.00	29.788 
03:25	60.4	60.4	60.4	49	41.1	0	2	248	0.00	29.788 
03:30	60.9	60.9	60.9	47	40.5	0	2	248	0.00	29.780 
03:35	61.3	61.3	61.3	47	40.9	1	5	248	0.00	29.780 
03:40	61.8	61.8	61.8	46	40.8	0	1	248	0.00	29.780 
03:45	62.0	62.0	62.0	45	40.4	0	4	248	0.00	29.768 
03:50	62.4	62.4	62.4	44	40.2	1	5	248	0.00	29.768 
03:55	62.7	62.7	62.7	43	39.9	0	2	270	0.00	29.768 
04:00	63.1	63.1	63.1	43	40.2	1	4	270	0.00	29.762 
04:05	63.2	63.2	63.2	42	39.7	1	4	248	0.00	29.762 
04:10	63.2	63.2	63.2	41	39.1	0	2	248	0.00	29.762 
04:15	63.2	63.2	63.2	42	39.7	1	4	248	0.00	29.753 
04:20	63.1	63.1	63.1	42	39.6	0	4	225	0.00	29.753 
04:25	62.9	62.9	62.9	41	38.8	0	4	248	0.00	29.753 
04:30	62.7	62.7	62.7	42	39.3	0	4	248	0.00	29.750 
04:35	62.4	62.4	62.4	42	39.0	0	2	248	0.00	29.750 
04:40	62.1	62.1	62.1	43	39.3	0	3	68	0.00	29.750 
04:45	61.6	61.6	61.6	43	38.9	0	1	68	0.00	29.749 
04:50	61.2	61.2	61.2	44	39.1	0	0	---	0.00	29.749 
04:55	60.7	60.7	60.7	44	38.7	0	0	---	0.00	29.749 
05:00	60.4	60.4	60.4	45	39.0	0	0	---	0.00	29.745 
05:05	59.9	59.9	59.9	46	39.1	0	1	68	0.00	29.745 
05:10	59.9	59.9	59.9	45	38.5	0	2	68	0.00	29.745 
05:15	59.8	59.8	59.8	46	39.0	0	0	---	0.00	29.742 
05:20	59.6	59.6	59.6	46	38.8	0	2	45	0.00	29.742 
05:25	59.5	59.5	59.5	46	38.7	0	1	45	0.00	29.742 
05:30	59.3	59.3	59.3	46	38.5	0	1	45	0.00	29.740 
05:35	59.3	59.3	59.3	46	38.5	0	1	45	0.00	29.740 
05:40	59.5	59.5	59.5	46	38.7	0	3	292	0.00	29.740 
05:45	59.6	59.6	59.6	46	38.8	0	1	292	0.00	29.735 
05:50	59.5	59.5	59.5	46	38.7	0	1	292	0.00	29.735 
05:55	59.3	59.3	59.3	46	38.5	0	2	292	0.00	29.735 
06:00	59.3	59.3	59.3	46	38.5	0	1	292	0.00	29.728 
06:05	59.2	59.2	59.2	47	39.0	0	0	---	0.00	29.728 
06:10	59.0	59.0	59.0	46	38.2	0	2	292	0.00	29.728 
06:15	58.9	58.9	58.9	46	38.2	0	1	292	0.00	29.728 
06:20	58.7	58.7	58.7	46	38.0	0	1	292	0.00	29.728 
06:25	58.6	58.6	58.6	47	38.4	0	0	---	0.00	29.728 
06:30	58.3	58.3	58.3	47	38.2	0	1	292	0.00	29.726 
06:35	58.1	58.1	58.1	47	38.0	0	1	292	0.00	29.726 
06:40	58.0	58.0	58.0	47	37.9	0	1	292	0.00	29.726 
06:45	57.8	57.8	57.8	48	38.2	0	1	292	0.00	29.723 
06:50	57.8	57.8	57.8	47	37.7	0	1	292	0.00	29.723 
06:55	57.6	57.6	57.6	48	38.1	0	0	---	0.00	29.723 
07:00	57.3	57.3	57.3	48	37.8	0	0	---	0.00	29.720 
07:05	57.0	57.0	57.0	49	38.0	0	1	292	0.00	29.720 
07:10	56.6	56.6	56.6	50	38.2	0	0	---	0.00	29.720 
07:15	56.0	56.0	56.0	51	38.1	0	0	---	0.00	29.728 
07:20	55.4	55.4	55.4	52	38.1	0	0	---	0.00	29.728 
07:25	55.0	55.0	55.0	54	38.7	0	1	292	0.00	29.728 
07:30	54.7	54.7	54.7	54	38.4	0	1	292	0.00	29.722 
07:35	54.5	54.5	54.5	54	38.2	0	1	292	0.00	29.722 
07:40	54.5	54.5	54.5	54	38.2	0	1	292	0.00	29.722 
07:45	54.7	54.7	54.7	53	37.9	0	2	292	0.00	29.725 
07:50	54.8	54.8	54.8	53	38.0	0	1	292	0.00	29.725 
07:55	55.0	55.0	55.0	53	38.2	0	1	292	0.00	29.725 
08:00	55.1	55.1	55.1	53	38.3	0	1	292	0.00	29.726 
08:05	55.3	55.3	55.3	52	38.0	0	1	292	0.00	29.726 
08:10	55.4	55.4	55.4	52	38.1	0	1	292	0.00	29.726 
08:15	55.7	55.7	55.7	52	38.3	0	1	292	0.00	29.730 
08:20	56.0	56.0	56.0	51	38.1	0	1	292	0.00	29.730 
08:25	56.6	56.6	56.6	51	38.7	0	0	---	0.00	29.730 
08:30	57.2	57.2	57.2	51	39.2	0	0	---	0.00	29.728 
08:35	57.6	57.6	57.6	49	38.6	0	0	---	0.00	29.728 
08:40	58.4	58.4	58.4	50	39.8	0	1	292	0.00	29.728 
08:45	59.2	59.2	59.2	49	40.0	0	1	292	0.00	29.727 
08:50	59.8	59.8	59.8	49	40.6	0	1	292	0.00	29.727 
08:55	60.1	60.1	60.1	49	40.9	1	3	90	0.00	29.727 
09:00	60.4	60.4	60.4	48	40.6	1	3	135	0.00	29.715 
09:05	60.4	60.4	60.4	47	40.1	1	3	112	0.00	29.715 
09:10	60.4	60.4	60.4	48	40.6	1	3	112	0.00	29.715 
09:15	60.5	60.5	60.5	47	40.2	1	2	112	0.00	29.707 
09:20	60.9	60.9	60.9	49	41.6	1	3	90	0.00	29.707 
09:25	60.9	60.9	60.9	48	41.1	1	2	90	0.00	29.707 
09:30	60.9	60.9	60.9	47	40.5	1	3	90	0.00	29.699 
09:35	60.9	60.9	60.9	46	40.0	1	4	135	0.00	29.699 
09:40	60.9	60.9	60.9	47	40.5	1	3	112	0.00	29.699 
09:45	61.2	61.2	61.2	47	40.8	2	4	112	0.00	29.697 
09:50	61.6	61.6	61.6	49	42.3	1	6	90	0.00	29.697 
09:55	62.3	62.3	62.3	46	41.3	2	5	112	0.00	29.697 
10:00	62.9	62.9	62.9	45	41.2	2	7	135	0.00	29.685 
10:05	63.5	63.5	63.5	44	41.2	2	5	90	0.00	29.685 
10:10	64.3	64.3	64.3	42	40.7	2	5	90	0.00	29.685 
10:15	65.5	65.5	65.5	40	40.5	2	9	112	0.00	29.680 
10:20	66.0	66.0	66.0	38	39.7	3	12	90	0.00	29.680 
10:25	66.3	66.3	66.3	38	39.9	3	7	112	0.00	29.680 
10:30	66.6	66.6	66.6	37	39.5	3	14	112	0.00	29.670 
10:35	66.9	66.9	66.9	37	39.8	3	10	90	0.00	29.670 
10:40	67.3	67.3	67.3	37	40.1	3	7	135	0.00	29.670 
10:45	67.4	67.4	67.4	38	40.9	2	7	90	0.00	29.663 
10:50	67.6	67.6	67.6	37	40.4	3	11	90	0.00	29.663 
10:55	67.6	67.6	67.6	38	41.1	3	9	68	0.00	29.663 
11:00	67.9	67.9	67.9	39	42.0	3	10	112	0.00	29.660 
11:05	68.1	68.1	68.1	39	42.2	4	13	112	0.00	29.660 
11:10	68.4	68.4	68.4	38	41.8	3	11	112	0.00	29.660 
11:15	68.9	68.9	68.9	35	40.1	5	17	90	0.00	29.646 
11:20	69.1	69.1	69.1	39	43.1	4	12	68	0.00	29.646 
11:25	68.9	68.9	68.9	40	43.6	5	12	248	0.00	29.646 
11:30	68.4	68.4	68.4	39	42.5	6	12	248	0.00	29.663 
11:35	68.1	68.1	68.1	39	42.2	4	13	270	0.00	29.663 
11:40	67.6	67.6	67.6	39	41.8	4	12	270	0.00	29.663 
11:45	66.9	66.9	66.9	41	42.4	5	12	270	0.00	29.665 
11:50	66.3	66.3	66.3	43	43.1	5	13	248	0.00	29.665 
11:55	65.6	65.6	65.6	45	43.7	4	10	270	0.00	29.665 
12:00	64.5	64.5	64.5	50	45.4	4	12	225	0.00	29.678 
12:05	63.4	63.4	63.4	50	44.4	4	8	248	0.00	29.678 
12:10	62.1	62.1	62.1	51	43.8	5	13	248	0.00	29.678 
12:15	61.0	61.0	61.0	55	44.7	4	10	248	0.00	29.698 
12:20	59.9	59.9	59.9	60	46.0	4	12	248	0.00	29.698 
12:25	59.0	59.0	59.0	63	46.4	3	10	248	0.00	29.698 
12:30	58.6	58.6	58.6	65	46.9	4	11	248	0.00	29.714 
12:35	58.3	58.3	58.3	67	47.4	2	7	248	0.00	29.714 
12:40	58.1	58.1	58.1	67	47.2	3	7	248	0.00	29.714 
12:45	58.0	58.0	58.0	69	47.9	3	8	270	0.00	29.727 
12:50	57.8	57.8	57.8	70	48.1	3	10	248	0.00	29.727 
12:55	57.6	57.6	57.6	73	49.0	3	6	248	0.00	29.727 
13:00	57.5	57.5	57.5	77	50.3	2	6	248	0.00	29.734 
13:05	56.6	56.6	56.6	80	50.5	3	11	248	0.00	29.734 
13:10	56.0	56.0	56.0	84	51.2	3	14	248	0.01	29.734 
13:15	54.4	54.4	54.4	83	49.3	5	11	270	0.00	29.752 
13:20	53.9	53.9	53.9	85	49.5	3	9	248	0.00	29.752 
13:25	53.9	53.9	53.9	87	50.1	3	7	248	0.00	29.752 
13:30	53.8	53.8	53.8	87	50.0	4	8	248	0.00	29.749 
13:35	53.8	53.8	53.8	87	50.0	3	11	248	0.00	29.749 
13:40	54.1	54.1	54.1	87	50.3	3	9	248	0.00	29.749 
13:45	54.1	54.1	54.1	85	49.7	4	10	270	0.00	29.754 
13:50	54.4	54.4	54.4	85	50.0	4	7	270	0.00	29.754 
13:55	54.7	54.7	54.7	84	50.0	4	9	248	0.00	29.754 
14:00	55.1	55.1	55.1	81	49.4	4	8	270	0.00	29.770 
14:05	55.4	55.4	55.4	80	49.3	4	14	248	0.00	29.770 
14:10	55.3	55.3	55.3	77	48.2	6	14	248	0.00	29.770 
14:15	55.3	55.3	55.3	77	48.2	5	13	270	0.00	29.791 
14:20	55.3	55.3	55.3	76	47.9	5	13	270	0.00	29.791 
14:25	55.3	55.3	55.3	76	47.9	5	13	270	0.00	29.791 
14:30	54.8	54.8	54.8	74	46.7	7	18	248	0.00	29.810 
14:35	55.0	55.0	55.0	75	47.2	5	12	248	0.00	29.810 
14:40	54.7	54.7	54.7	76	47.3	7	16	270	0.00	29.810 
14:45	54.1	54.1	54.1	79	47.7	6	14	248	0.00	29.830 
14:50	53.6	53.6	53.6	79	47.2	6	16	270	0.00	29.830 
14:55	53.9	53.9	53.9	79	47.5	6	13	270	0.00	29.830 
15:00	53.6	53.6	53.6	78	46.9	7	15	270	0.00	29.850 
15:05	53.6	53.6	53.6	78	46.9	7	17	270	0.00	29.850 
15:10	53.6	53.6	53.6	77	46.6	6	15	270	0.00	29.850 
15:15	53.3	53.3	53.3	77	46.3	7	17	270	0.00	29.858 
15:20	53.3	53.3	53.3	78	46.6	5	13	248	0.00	29.858 
15:25	52.9	52.9	52.9	78	46.2	7	16	270	0.00	29.858 
15:30	52.5	52.5	52.5	81	46.8	6	14	270	0.00	29.875 
15:35	52.2	52.2	52.2	80	46.2	6	16	270	0.00	29.875 
15:40	52.3	52.3	52.3	81	46.6	3	8	248	0.00	29.875 
15:45	52.8	52.8	52.8	79	46.5	4	9	248	0.00	29.860 
15:50	53.5	53.5	53.5	77	46.5	3	10	202	0.00	29.860 
15:55	53.5	53.5	53.5	74	45.4	4	10	270	0.00	29.860 
16:00	53.3	53.3	53.3	73	44.9	3	7	270	0.00	29.855 
16:05	54.5	54.5	54.5	72	45.7	3	7	248	0.00	29.855 
16:10	55.9	55.9	55.9	67	45.1	3	12	248	0.00	29.855 
16:15	56.2	56.2	56.2	63	43.8	4	10	270	0.00	29.847 
16:20	56.2	56.2	56.2	64	44.2	3	9	248	0.00	29.847 
16:25	56.5	56.5	56.5	62	43.6	5	14	270	0.00	29.847 
16:30	56.9	56.9	56.9	62	44.0	4	10	270	0.00	29.865 
16:35	57.0	57.0	57.0	61	43.7	5	11	270	0.00	29.865 
16:40	57.0	57.0	57.0	63	44.5	4	7	270	0.00	29.865 
16:45	56.6	56.6	56.6	64	44.6	5	12	248	0.00	29.869 
16:50	56.6	56.6	56.6	64	44.6	4	10	248	0.00	29.869 
16:55	57.0	57.0	57.0	64	44.9	4	10	248	0.00	29.869 
17:00	57.2	57.2	57.2	63	44.7	5	11	270	0.00	29.877 
17:05	57.6	57.6	57.6	64	45.5	3	9	248	0.00	29.877 
17:10	58.0	58.0	58.0	61	44.6	5	13	248	0.00	29.877 
17:15	58.0	58.0	58.0	62	45.1	5	13	248	0.00	29.881 
17:20	57.6	57.6	57.6	62	44.7	4	7	248	0.00	29.881 
17:25	57.5	57.5	57.5	63	45.0	3	10	248	0.00	29.881 
17:30	57.5	57.5	57.5	61	44.2	5	12	248	0.00	29.882 
17:35	57.2	57.2	57.2	62	44.3	6	15	248	0.00	29.882 
17:40	57.3	57.3	57.3	62	44.4	5	11	248	0.00	29.882 
17:45	57.2	57.2	57.2	65	45.5	3	7	248	0.00	29.904 
17:50	56.0	56.0	56.0	68	45.6	6	12	270	0.00	29.904 
17:55	53.9	53.9	53.9	73	45.4	6	14	270	0.00	29.904 
18:00	53.2	53.2	53.2	79	46.9	3	11	248	0.00	29.918 
18:05	52.9	52.9	52.9	79	46.6	3	9	248	0.00	29.918 
18:10	52.9	52.9	52.9	77	45.9	4	10	248	0.00	29.918 
18:15	53.1	53.1	53.1	76	45.7	3	11	248	0.00	29.926 
18:20	53.5	53.5	53.5	75	45.8	3	7	248	0.00	29.926 
18:25	53.9	53.9	53.9	71	44.7	5	12	248	0.00	29.926 
18:30	54.4	54.4	54.4	71	45.2	3	11	248	0.00	29.933 
18:35	54.7	54.7	54.7	70	45.1	3	7	248	0.00	29.933 
18:40	54.8	54.8	54.8	69	44.8	3	7	248	0.00	29.933 
18:45	54.8	54.8	54.8	68	44.4	3	7	248	0.00	29.940 
18:50	54.8	54.8	54.8	69	44.8	4	10	248	0.00	29.940 
18:55	55.0	55.0	55.0	69	45.0	2	6	248	0.00	29.940 
19:00	55.0	55.0	55.0	69	45.0	2	7	248	0.00	29.948 
19:05	54.8	54.8	54.8	69	44.8	3	7	248	0.00	29.948 
19:10	54.7	54.7	54.7	69	44.7	1	5	248	0.00	29.948 
19:15	54.7	54.7	54.7	69	44.7	3	9	248	0.00	29.958 
19:20	54.7	54.7	54.7	69	44.7	1	5	270	0.00	29.958 
19:25	54.7	54.7	54.7	68	44.3	3	8	248	0.00	29.958 
19:30	54.7	54.7	54.7	68	44.3	2	6	248	0.00	29.966 
19:35	54.7	54.7	54.7	68	44.3	3	6	248	0.00	29.966 
19:40	54.5	54.5	54.5	68	44.2	2	5	248	0.00	29.966 
19:45	54.5	54.5	54.5	69	44.5	2	5	248	0.00	29.974 
19:50	54.4	54.4	54.4	69	44.4	2	5	248	0.00	29.974 
19:55	54.2	54.2	54.2	69	44.3	2	6	248	0.00	29.974 
20:00	54.1	54.1	54.1	70	44.5	2	5	248	0.00	29.986 
20:05	54.1	54.1	54.1	70	44.5	1	4	248	0.00	29.986 
20:10	53.9	53.9	53.9	71	44.7	2	5	248	0.00	29.986 
20:15	53.9	53.9	53.9	71	44.7	1	4	225	0.00	29.991 
20:20	53.6	53.6	53.6	72	44.8	0	2	225	0.00	29.991 
20:25	53.5	53.5	53.5	73	45.1	1	5	225	0.00	29.991 
20:30	53.5	53.5	53.5	73	45.1	1	4	225	0.00	30.000 
20:35	53.5	53.5	53.5	73	45.1	1	3	248	0.00	30.000 
20:40	53.3	53.3	53.3	72	44.5	1	4	248	0.00	30.000 
20:45	53.3	53.3	53.3	71	44.1	1	3	248	0.00	30.010 
20:50	53.2	53.2	53.2	71	44.0	1	3	248	0.00	30.010 
20:55	53.1	53.1	53.1	70	43.6	0	2	248	0.00	30.010 
21:00	52.9	52.9	52.9	70	43.4	1	3	248	0.00	30.016 
21:05	52.6	52.6	52.6	70	43.1	1	3	248	0.00	30.016 
21:10	52.5	52.5	52.5	70	43.0	0	2	248	0.00	30.016 
21:15	52.3	52.3	52.3	70	42.8	0	1	248	0.00	30.020 
21:20	52.0	52.0	52.0	71	42.9	0	1	248	0.00	30.020 
21:25	51.7	51.7	51.7	72	43.0	0	1	248	0.00	30.020 
21:30	51.4	51.4	51.4	72	42.7	0	1	248	0.00	30.023 
21:35	51.3	51.3	51.3	72	42.6	0	2	248	0.00	30.023 
21:40	51.0	51.0	51.0	73	42.7	0	1	248	0.00	30.023 
21:45	50.7	50.7	50.7	73	42.4	0	1	248	0.00	30.024 
21:50	50.4	50.4	50.4	73	42.1	0	1	248	0.00	30.024 
21:55	50.2	50.2	50.2	74	42.2	0	1	248	0.00	30.024 
22:00	49.9	49.9	49.9	74	41.9	0	1	248	0.00	30.027 
22:05	49.8	49.8	49.8	75	42.2	0	2	248	0.00	30.027 
22:10	49.6	49.6	49.6	74	41.7	0	0	---	0.00	30.027 
22:15	49.5	49.5	49.5	74	41.6	0	1	248	0.00	30.028 
22:20	49.4	49.4	49.4	74	41.5	0	0	---	0.00	30.028 
22:25	49.4	49.4	49.4	74	41.5	0	0	---	0.00	30.028 
22:30	49.4	49.4	49.4	74	41.5	0	1	248	0.00	30.037 
22:35	49.2	49.2	49.2	74	41.3	0	0	---	0.00	30.037 
22:40	48.9	48.9	48.9	74	41.0	0	2	248	0.00	30.037 
22:45	48.8	48.8	48.8	74	40.9	0	1	248	0.00	30.040 
22:50	48.6	48.6	48.6	74	40.7	0	0	---	0.00	30.040 
22:55	48.6	48.6	48.6	74	40.7	0	1	248	0.00	30.040 
23:00	48.6	48.6	48.6	73	40.3	0	0	---	0.00	30.047 
23:05	48.5	48.5	48.5	73	40.2	0	1	248	0.00	30.047 
23:10	48.2	48.2	48.2	73	40.0	0	0	---	0.00	30.047 
23:15	47.9	47.9	47.9	74	40.0	0	0	---	0.00	30.057 
23:20	47.4	47.4	47.4	74	39.5	0	0	---	0.00	30.057 
23:25	47.1	47.1	47.1	75	39.6	0	0	---	0.00	30.057 
23:30	46.7	46.7	46.7	75	39.2	0	0	---	0.00	30.061 
23:35	46.2	46.2	46.2	75	38.7	0	0	---	0.00	30.061 
23:40	46.0	46.0	46.0	76	38.9	0	0	---	0.00	30.061 
23:45	45.5	45.5	45.5	77	38.7	0	0	---	0.00	30.071 
23:50	45.1	45.1	45.1	78	38.7	0	0	---	0.00	30.071 
23:55	44.8	44.8	44.8	78	38.4	0	0	---	0.00	30.071 

CoCoRaHS
IN-AL-39
A2 Web Hosting
Creative Commons License
GoDaddy
search engine by freefind advanced

loaded 2018-11-13 02:09:34 • last modified 2010-11-18 10:43:29
Privacy PolicyDisclaimer
• wx.awcolley.com is powered by PmWiki v.2002016 •
• all content (unless otherwise noted) © 2018 A W Colley